createdAt,value
2018-05-31T00:00:36.985Z,998.21
2018-05-31T00:01:36.980Z,998.20
2018-05-31T00:02:36.977Z,998.17
2018-05-31T00:03:36.972Z,998.21
2018-05-31T00:04:36.967Z,998.16
2018-05-31T00:05:36.964Z,998.15
2018-05-31T00:06:36.961Z,998.15
2018-05-31T00:07:37.158Z,998.13
2018-05-31T00:08:36.953Z,998.14
2018-05-31T00:09:36.951Z,998.16
2018-05-31T00:10:37.146Z,998.12
2018-05-31T00:11:36.942Z,998.15
2018-05-31T00:12:36.937Z,998.11
2018-05-31T00:13:36.933Z,998.16
2018-05-31T00:14:36.928Z,998.16
2018-05-31T00:15:36.925Z,998.12
2018-05-31T00:16:36.921Z,998.10
2018-05-31T00:17:36.922Z,998.12
2018-05-31T00:18:36.912Z,998.17
2018-05-31T00:19:36.909Z,998.19
2018-05-31T00:20:36.906Z,998.15
2018-05-31T00:21:36.903Z,998.15
2018-05-31T00:22:36.896Z,998.14
2018-05-31T00:23:36.892Z,998.14
2018-05-31T00:24:36.889Z,998.13
2018-05-31T00:25:36.885Z,998.11
2018-05-31T00:26:36.880Z,998.11
2018-05-31T00:27:36.879Z,998.15
2018-05-31T00:28:36.872Z,998.17
2018-05-31T00:29:36.869Z,998.17
2018-05-31T00:30:36.867Z,998.17
2018-05-31T00:31:36.867Z,998.19
2018-05-31T00:32:36.856Z,998.18
2018-05-31T00:33:36.856Z,998.14
2018-05-31T00:34:36.848Z,998.16
2018-05-31T00:35:36.844Z,998.15
2018-05-31T00:36:36.841Z,998.18
2018-05-31T00:37:36.837Z,998.17
2018-05-31T00:38:36.832Z,998.16
2018-05-31T00:39:36.828Z,998.17
2018-05-31T00:40:36.824Z,998.14
2018-05-31T00:41:36.822Z,998.16
2018-05-31T00:42:36.817Z,998.17
2018-05-31T00:43:36.815Z,998.11
2018-05-31T00:44:36.810Z,998.13
2018-05-31T00:45:36.805Z,998.09
2018-05-31T00:46:36.801Z,998.06
2018-05-31T00:47:36.796Z,998.01
2018-05-31T00:48:36.797Z,997.99
2018-05-31T00:49:36.789Z,997.97
2018-05-31T00:50:36.784Z,998.01
2018-05-31T00:51:36.781Z,998.03
2018-05-31T00:52:36.777Z,998.06
2018-05-31T00:53:36.773Z,998.06
2018-05-31T00:54:36.769Z,998.06
2018-05-31T00:55:36.764Z,998.06
2018-05-31T00:56:36.761Z,998.05
2018-05-31T00:57:36.757Z,998.05
2018-05-31T00:58:36.753Z,998.04
2018-05-31T00:59:36.749Z,998.08
2018-05-31T01:00:36.745Z,998.08
2018-05-31T01:01:36.741Z,998.07
2018-05-31T01:02:36.736Z,998.09
2018-05-31T01:03:36.733Z,998.05
2018-05-31T01:04:36.728Z,998.03
2018-05-31T01:05:36.928Z,998.01
2018-05-31T01:06:36.720Z,997.98
2018-05-31T01:07:36.722Z,997.98
2018-05-31T01:08:36.712Z,997.97
2018-05-31T01:09:36.709Z,997.96
2018-05-31T01:10:36.704Z,997.97
2018-05-31T01:11:36.704Z,997.94
2018-05-31T01:12:36.699Z,997.97
2018-05-31T01:13:36.692Z,997.97
2018-05-31T01:14:36.689Z,997.96
2018-05-31T01:15:36.688Z,997.99
2018-05-31T01:16:36.688Z,998.04
2018-05-31T01:17:36.676Z,998.05
2018-05-31T01:18:36.674Z,998.14
2018-05-31T01:19:36.668Z,998.30
2018-05-31T01:20:36.667Z,998.53
2018-05-31T01:21:36.659Z,998.50
2018-05-31T01:22:36.654Z,998.50
2018-05-31T01:23:36.650Z,998.46
2018-05-31T01:24:36.650Z,998.53
2018-05-31T01:25:36.643Z,998.58
2018-05-31T01:26:36.641Z,998.59
2018-05-31T01:27:36.634Z,998.53
2018-05-31T01:28:36.633Z,998.49
2018-05-31T01:29:36.629Z,998.52
2018-05-31T01:30:36.620Z,998.61
2018-05-31T01:31:36.616Z,998.61
2018-05-31T01:32:36.612Z,998.68
2018-05-31T01:33:36.608Z,998.62
2018-05-31T01:34:36.607Z,998.60
2018-05-31T01:35:36.604Z,998.57
2018-05-31T01:36:36.594Z,998.60
2018-05-31T01:37:36.591Z,998.59
2018-05-31T01:38:36.586Z,998.57
2018-05-31T01:39:36.582Z,998.59
2018-05-31T01:40:36.579Z,998.56
2018-05-31T01:41:36.573Z,998.52
2018-05-31T01:42:36.568Z,998.53
2018-05-31T01:43:36.564Z,998.55
2018-05-31T01:44:36.563Z,998.53
2018-05-31T01:45:36.558Z,998.50
2018-05-31T01:46:36.551Z,998.50
2018-05-31T01:47:36.547Z,998.44
2018-05-31T01:48:36.542Z,998.46
2018-05-31T01:49:36.539Z,998.43
2018-05-31T01:50:36.534Z,998.36
2018-05-31T01:51:36.530Z,998.36
2018-05-31T01:52:36.526Z,998.36
2018-05-31T01:53:36.522Z,998.38
2018-05-31T01:54:36.517Z,998.36
2018-05-31T01:55:36.512Z,998.37
2018-05-31T01:56:36.508Z,998.43
2018-05-31T01:57:36.505Z,998.41
2018-05-31T01:58:36.499Z,998.39
2018-05-31T01:59:36.496Z,998.41
2018-05-31T02:00:36.493Z,998.41
2018-05-31T02:01:36.488Z,998.36
2018-05-31T02:02:36.483Z,998.37
2018-05-31T02:03:36.480Z,998.34
2018-05-31T02:04:36.475Z,998.36
2018-05-31T02:05:36.473Z,998.38
2018-05-31T02:06:36.467Z,998.35
2018-05-31T02:07:36.464Z,998.36
2018-05-31T02:08:36.459Z,998.32
2018-05-31T02:09:36.456Z,998.33
2018-05-31T02:10:36.451Z,998.31
2018-05-31T02:11:36.448Z,998.36
2018-05-31T02:12:36.443Z,998.30
2018-05-31T02:13:36.440Z,998.34
2018-05-31T02:14:36.435Z,998.32
2018-05-31T02:15:36.431Z,998.36
2018-05-31T02:16:36.427Z,998.35
2018-05-31T02:17:36.423Z,998.31
2018-05-31T02:18:36.418Z,998.33
2018-05-31T02:19:36.415Z,998.32
2018-05-31T02:20:36.410Z,998.30
2018-05-31T02:21:36.407Z,998.30
2018-05-31T02:22:36.403Z,998.31
2018-05-31T02:23:36.401Z,998.31
2018-05-31T02:24:36.394Z,998.27
2018-05-31T02:25:36.391Z,998.28
2018-05-31T02:26:36.386Z,998.27
2018-05-31T02:27:36.384Z,998.23
2018-05-31T02:28:36.528Z,998.30
2018-05-31T02:29:36.374Z,998.24
2018-05-31T02:30:36.370Z,998.22
2018-05-31T02:31:36.366Z,998.25
2018-05-31T02:32:36.362Z,998.21
2018-05-31T02:33:36.363Z,998.24
2018-05-31T02:34:36.354Z,998.24
2018-05-31T02:35:36.354Z,998.21
2018-05-31T02:36:36.346Z,998.22
2018-05-31T02:37:36.343Z,998.22
2018-05-31T02:38:36.338Z,998.23
2018-05-31T02:39:36.334Z,998.26
2018-05-31T02:40:36.330Z,998.25
2018-05-31T02:41:36.326Z,998.25
2018-05-31T02:42:36.324Z,998.24
2018-05-31T02:43:36.319Z,998.26
2018-05-31T02:44:36.314Z,998.29
2018-05-31T02:45:36.311Z,998.26
2018-05-31T02:46:36.308Z,998.31
2018-05-31T02:47:36.302Z,998.24
2018-05-31T02:48:36.298Z,998.25
2018-05-31T02:49:36.295Z,998.19
2018-05-31T02:50:36.290Z,998.18
2018-05-31T02:51:36.286Z,998.19
2018-05-31T02:52:36.282Z,998.17
2018-05-31T02:53:36.279Z,998.14
2018-05-31T02:54:36.274Z,998.12
2018-05-31T02:55:36.271Z,998.15
2018-05-31T02:56:36.270Z,998.10
2018-05-31T02:57:36.264Z,998.10
2018-05-31T02:58:36.258Z,998.09
2018-05-31T02:59:36.255Z,998.08
2018-05-31T03:00:36.254Z,998.11
2018-05-31T03:01:36.247Z,998.12
2018-05-31T03:02:36.247Z,998.13
2018-05-31T03:03:36.240Z,998.17
2018-05-31T03:04:36.236Z,998.17
2018-05-31T03:05:36.237Z,998.19
2018-05-31T03:06:36.229Z,998.17
2018-05-31T03:07:36.225Z,998.17
2018-05-31T03:08:36.223Z,998.19
2018-05-31T03:09:36.217Z,998.13
2018-05-31T03:10:36.215Z,998.07
2018-05-31T03:11:36.208Z,998.06
2018-05-31T03:12:36.206Z,998.06
2018-05-31T03:13:36.200Z,998.04
2018-05-31T03:14:36.195Z,998.06
2018-05-31T03:15:36.191Z,998.08
2018-05-31T03:16:36.188Z,998.07
2018-05-31T03:17:36.184Z,998.05
2018-05-31T03:18:36.181Z,998.09
2018-05-31T03:19:36.176Z,998.11
2018-05-31T03:20:36.172Z,998.10
2018-05-31T03:21:36.171Z,998.12
2018-05-31T03:22:36.163Z,998.10
2018-05-31T03:23:36.160Z,998.11
2018-05-31T03:24:36.167Z,998.08
2018-05-31T03:25:36.154Z,998.07
2018-05-31T03:26:36.150Z,998.09
2018-05-31T03:27:36.144Z,998.06
2018-05-31T03:28:36.141Z,998.08
2018-05-31T03:29:36.137Z,998.01
2018-05-31T03:30:36.133Z,998.06
2018-05-31T03:31:36.130Z,998.05
2018-05-31T03:32:36.125Z,998.07
2018-05-31T03:33:36.122Z,998.09
2018-05-31T03:34:36.119Z,998.08
2018-05-31T03:35:36.117Z,998.06
2018-05-31T03:36:36.110Z,998.05
2018-05-31T03:37:36.112Z,998.08
2018-05-31T03:38:36.104Z,998.08
2018-05-31T03:39:36.103Z,998.06
2018-05-31T03:40:36.095Z,998.07
2018-05-31T03:41:36.092Z,998.01
2018-05-31T03:42:36.091Z,998.03
2018-05-31T03:43:36.083Z,998.04
2018-05-31T03:44:36.080Z,998.04
2018-05-31T03:46:36.079Z,998.10
2018-05-31T03:47:36.068Z,998.06
2018-05-31T03:48:36.067Z,998.07
2018-05-31T03:49:36.061Z,998.09
2018-05-31T03:50:36.056Z,998.12
2018-05-31T03:51:36.053Z,998.11
2018-05-31T03:52:36.049Z,998.10
2018-05-31T03:53:36.046Z,998.12
2018-05-31T03:54:36.052Z,998.12
2018-05-31T03:55:36.043Z,998.09
2018-05-31T03:56:36.034Z,998.10
2018-05-31T03:57:36.035Z,998.09
2018-05-31T03:58:36.027Z,998.05
2018-05-31T03:59:36.024Z,998.05
2018-05-31T04:00:36.028Z,998.00
2018-05-31T04:01:36.057Z,998.01
2018-05-31T04:02:36.011Z,997.98
2018-05-31T04:03:36.008Z,998.03
2018-05-31T04:04:36.006Z,998.00
2018-05-31T04:05:36.001Z,998.06
2018-05-31T04:06:35.996Z,998.02
2018-05-31T04:07:35.993Z,998.03
2018-05-31T04:08:35.994Z,998.05
2018-05-31T04:09:35.988Z,998.02
2018-05-31T04:10:35.986Z,998.01
2018-05-31T04:11:35.987Z,997.97
2018-05-31T04:12:35.975Z,997.94
2018-05-31T04:13:35.973Z,997.97
2018-05-31T04:14:35.968Z,997.96
2018-05-31T04:15:35.964Z,997.97
2018-05-31T04:16:35.962Z,997.99
2018-05-31T04:17:35.957Z,998.01
2018-05-31T04:18:35.953Z,998.00
2018-05-31T04:19:35.952Z,998.03
2018-05-31T04:20:35.946Z,998.04
2018-05-31T04:21:35.943Z,998.05
2018-05-31T04:22:35.939Z,997.96
2018-05-31T04:23:35.935Z,997.97
2018-05-31T04:24:35.936Z,997.98
2018-05-31T04:25:35.936Z,998.01
2018-05-31T04:26:35.925Z,998.02
2018-05-31T04:27:35.922Z,998.00
2018-05-31T04:28:35.919Z,998.03
2018-05-31T04:29:36.121Z,998.03
2018-05-31T04:30:35.912Z,998.02
2018-05-31T04:31:35.913Z,998.05
2018-05-31T04:32:35.907Z,998.02
2018-05-31T04:33:35.918Z,998.05
2018-05-31T04:34:35.903Z,998.02
2018-05-31T04:35:35.896Z,998.03
2018-05-31T04:36:35.892Z,998.11
2018-05-31T04:37:35.889Z,998.08
2018-05-31T04:38:35.885Z,998.07
2018-05-31T04:39:36.085Z,998.05
2018-05-31T04:40:36.086Z,998.04
2018-05-31T04:41:36.083Z,998.03
2018-05-31T04:42:35.876Z,998.03
2018-05-31T04:43:35.869Z,998.02
2018-05-31T04:44:35.872Z,998.03
2018-05-31T04:45:35.864Z,998.03
2018-05-31T04:46:35.860Z,998.07
2018-05-31T04:47:35.857Z,998.08
2018-05-31T04:48:35.855Z,998.05
2018-05-31T04:49:35.852Z,998.03
2018-05-31T04:50:35.850Z,998.03
2018-05-31T04:51:35.847Z,998.06
2018-05-31T04:52:35.842Z,998.06
2018-05-31T04:53:35.876Z,998.10
2018-05-31T04:54:35.843Z,998.10
2018-05-31T04:55:35.833Z,998.08
2018-05-31T04:56:35.830Z,998.11
2018-05-31T04:57:35.828Z,998.12
2018-05-31T04:58:35.824Z,998.13
2018-05-31T04:59:35.823Z,998.14
2018-05-31T05:00:35.823Z,998.16
2018-05-31T05:01:35.821Z,998.15
2018-05-31T05:02:35.813Z,998.19
2018-05-31T05:03:35.811Z,998.22
2018-05-31T05:04:35.806Z,998.23
2018-05-31T05:05:35.812Z,998.24
2018-05-31T05:06:35.805Z,998.26
2018-05-31T05:07:35.798Z,998.29
2018-05-31T05:08:35.796Z,998.30
2018-05-31T05:09:35.796Z,998.35
2018-05-31T05:10:35.794Z,998.39
2018-05-31T05:11:35.787Z,998.41
2018-05-31T05:12:35.989Z,998.45
2018-05-31T05:13:35.786Z,998.47
2018-05-31T05:14:35.780Z,998.52
2018-05-31T05:15:35.779Z,998.50
2018-05-31T05:16:35.778Z,998.48
2018-05-31T05:17:35.773Z,998.45
2018-05-31T05:18:35.770Z,998.45
2018-05-31T05:19:35.765Z,998.40
2018-05-31T05:20:35.760Z,998.31
2018-05-31T05:21:35.759Z,998.32
2018-05-31T05:22:35.753Z,998.31
2018-05-31T05:23:35.751Z,998.29
2018-05-31T05:24:35.748Z,998.26
2018-05-31T05:25:35.745Z,998.26
2018-05-31T05:26:35.742Z,998.22
2018-05-31T05:27:35.749Z,998.27
2018-05-31T05:28:35.736Z,998.26
2018-05-31T05:29:35.738Z,998.30
2018-05-31T05:30:35.729Z,998.28
2018-05-31T05:31:35.726Z,998.35
2018-05-31T05:32:35.725Z,998.34
2018-05-31T05:33:35.720Z,998.36
2018-05-31T05:34:35.716Z,998.41
2018-05-31T05:35:35.713Z,998.39
2018-05-31T05:36:35.713Z,998.43
2018-05-31T05:37:35.707Z,998.45
2018-05-31T05:38:35.703Z,998.49
2018-05-31T05:39:35.703Z,998.52
2018-05-31T05:40:35.702Z,998.55
2018-05-31T05:41:35.694Z,998.56
2018-05-31T05:42:35.690Z,998.51
2018-05-31T05:43:35.712Z,998.53
2018-05-31T05:44:35.684Z,998.53
2018-05-31T05:45:35.683Z,998.53
2018-05-31T05:46:35.680Z,998.62
2018-05-31T05:47:35.675Z,998.66
2018-05-31T05:48:35.678Z,998.65
2018-05-31T05:49:35.673Z,998.64
2018-05-31T05:50:35.669Z,998.62
2018-05-31T05:51:35.660Z,998.57
2018-05-31T05:52:35.864Z,998.56
2018-05-31T05:53:35.653Z,998.65
2018-05-31T05:54:35.648Z,998.65
2018-05-31T05:55:35.644Z,998.65
2018-05-31T05:56:35.644Z,998.62
2018-05-31T05:57:35.638Z,998.57
2018-05-31T05:58:35.633Z,998.55
2018-05-31T05:59:35.629Z,998.52
2018-05-31T06:00:35.625Z,998.46
2018-05-31T06:01:35.622Z,998.42
2018-05-31T06:02:35.619Z,998.39
2018-05-31T06:03:35.619Z,998.36
2018-05-31T06:04:35.614Z,998.40
2018-05-31T06:05:35.620Z,998.41
2018-05-31T06:06:35.804Z,998.49
2018-05-31T06:07:35.597Z,998.54
2018-05-31T06:08:35.593Z,998.60
2018-05-31T06:09:35.596Z,998.61
2018-05-31T06:10:35.586Z,998.69
2018-05-31T06:11:35.587Z,998.68
2018-05-31T06:12:35.581Z,998.75
2018-05-31T06:13:35.573Z,998.71
2018-05-31T06:14:35.568Z,998.78
2018-05-31T06:15:35.619Z,998.78
2018-05-31T06:16:35.564Z,998.82
2018-05-31T06:17:35.559Z,998.91
2018-05-31T06:18:35.554Z,998.93
2018-05-31T06:19:35.552Z,998.97
2018-05-31T06:20:35.547Z,998.99
2018-05-31T06:21:35.542Z,999.02
2018-05-31T06:22:35.739Z,999.03
2018-05-31T06:23:35.533Z,999.03
2018-05-31T06:24:35.551Z,999.01
2018-05-31T06:25:35.526Z,999.02
2018-05-31T06:26:35.525Z,998.95
2018-05-31T06:27:35.519Z,998.92
2018-05-31T06:28:35.518Z,998.88
2018-05-31T06:29:35.511Z,998.89
2018-05-31T06:30:35.506Z,998.89
2018-05-31T06:31:35.504Z,998.89
2018-05-31T06:32:35.497Z,998.94
2018-05-31T06:34:35.496Z,998.99
2018-05-31T06:35:35.494Z,998.94
2018-05-31T06:36:35.486Z,998.96
2018-05-31T06:37:35.485Z,998.98
2018-05-31T06:38:35.474Z,999.02
2018-05-31T06:39:35.471Z,999.03
2018-05-31T06:40:35.468Z,998.99
2018-05-31T06:41:35.464Z,998.95
2018-05-31T06:42:35.460Z,998.86
2018-05-31T06:43:35.666Z,998.87
2018-05-31T06:44:35.655Z,998.87
2018-05-31T06:45:35.457Z,998.86
2018-05-31T06:46:35.446Z,998.84
2018-05-31T06:47:35.442Z,998.81
2018-05-31T06:48:35.439Z,998.84
2018-05-31T06:49:35.436Z,998.82
2018-05-31T06:50:35.441Z,998.86
2018-05-31T06:51:35.429Z,998.89
2018-05-31T06:52:35.426Z,998.92
2018-05-31T06:53:35.426Z,998.96
2018-05-31T06:54:35.420Z,998.96
2018-05-31T06:55:35.425Z,999.00
2018-05-31T06:56:35.416Z,998.97
2018-05-31T06:57:35.412Z,998.91
2018-05-31T06:58:35.408Z,998.91
2018-05-31T06:59:35.407Z,998.90
2018-05-31T07:00:35.403Z,998.93
2018-05-31T07:01:35.402Z,998.91
2018-05-31T07:02:35.400Z,998.95
2018-05-31T07:03:35.396Z,998.96
2018-05-31T07:04:35.396Z,998.98
2018-05-31T07:05:35.390Z,998.99
2018-05-31T07:06:35.387Z,999.00
2018-05-31T07:07:35.387Z,998.98
2018-05-31T07:08:35.380Z,998.99
2018-05-31T07:09:35.379Z,998.98
2018-05-31T07:10:35.374Z,998.98
2018-05-31T07:11:35.372Z,998.99
2018-05-31T07:12:35.369Z,999.00
2018-05-31T07:13:35.367Z,998.99
2018-05-31T07:14:35.371Z,999.01
2018-05-31T07:15:35.365Z,999.01
2018-05-31T07:16:35.359Z,999.03
2018-05-31T07:17:35.363Z,999.00
2018-05-31T07:18:35.354Z,999.03
2018-05-31T07:19:35.353Z,999.04
2018-05-31T07:20:35.353Z,999.06
2018-05-31T07:21:35.348Z,999.05
2018-05-31T07:22:35.349Z,999.08
2018-05-31T07:23:35.344Z,999.12
2018-05-31T07:24:35.342Z,999.13
2018-05-31T07:25:35.342Z,999.13
2018-05-31T07:26:35.340Z,999.10
2018-05-31T07:27:35.336Z,999.15
2018-05-31T07:28:35.334Z,999.13
2018-05-31T07:29:35.333Z,999.09
2018-05-31T07:30:35.331Z,999.11
2018-05-31T07:31:35.330Z,999.11
2018-05-31T07:32:35.328Z,999.11
2018-05-31T07:33:35.327Z,999.12
2018-05-31T07:34:35.325Z,999.16
2018-05-31T07:35:35.328Z,999.15
2018-05-31T07:36:35.322Z,999.21
2018-05-31T07:37:35.323Z,999.15
2018-05-31T07:38:35.321Z,999.18
2018-05-31T07:39:35.318Z,999.18
2018-05-31T07:40:35.322Z,999.19
2018-05-31T07:41:35.318Z,999.18
2018-05-31T07:42:35.320Z,999.18
2018-05-31T07:43:35.313Z,999.20
2018-05-31T07:44:35.317Z,999.19
2018-05-31T07:45:35.315Z,999.23
2018-05-31T07:46:35.314Z,999.20
2018-05-31T07:47:35.308Z,999.22
2018-05-31T07:48:35.308Z,999.26
2018-05-31T07:49:35.306Z,999.23
2018-05-31T07:50:35.304Z,999.21
2018-05-31T07:51:35.315Z,999.23
2018-05-31T07:52:35.304Z,999.19
2018-05-31T07:53:35.301Z,999.23
2018-05-31T07:54:35.306Z,999.21
2018-05-31T07:55:35.303Z,999.23
2018-05-31T07:56:35.297Z,999.25
2018-05-31T07:57:35.299Z,999.27
2018-05-31T07:58:35.295Z,999.24
2018-05-31T07:59:35.294Z,999.27
2018-05-31T08:00:35.292Z,999.26
2018-05-31T08:01:35.292Z,999.30
2018-05-31T08:02:35.290Z,999.29
2018-05-31T08:03:35.294Z,999.25
2018-05-31T08:04:35.289Z,999.31
2018-05-31T08:05:35.288Z,999.29
2018-05-31T08:06:35.289Z,999.33
2018-05-31T08:07:35.286Z,999.39
2018-05-31T08:08:35.285Z,999.40
2018-05-31T08:09:35.285Z,999.40
2018-05-31T08:10:35.486Z,999.44
2018-05-31T08:11:35.293Z,999.46
2018-05-31T08:12:35.281Z,999.54
2018-05-31T08:13:35.281Z,999.56
2018-05-31T08:14:35.279Z,999.57
2018-05-31T08:15:35.278Z,999.59
2018-05-31T08:16:35.277Z,999.63
2018-05-31T08:17:35.284Z,999.61
2018-05-31T08:18:35.280Z,999.59
2018-05-31T08:19:35.277Z,999.57
2018-05-31T08:20:35.283Z,999.61
2018-05-31T08:21:35.275Z,999.59
2018-05-31T08:22:35.274Z,999.53
2018-05-31T08:23:35.270Z,999.51
2018-05-31T08:24:35.268Z,999.49
2018-05-31T08:25:35.266Z,999.50
2018-05-31T08:26:35.268Z,999.49
2018-05-31T08:27:35.263Z,999.46
2018-05-31T08:28:35.262Z,999.51
2018-05-31T08:29:35.265Z,999.51
2018-05-31T08:30:35.264Z,999.52
2018-05-31T08:31:35.330Z,999.55
2018-05-31T08:32:35.259Z,999.57
2018-05-31T08:33:35.258Z,999.55
2018-05-31T08:34:35.259Z,999.55
2018-05-31T08:35:35.256Z,999.53
2018-05-31T08:36:35.258Z,999.57
2018-05-31T08:37:35.255Z,999.51
2018-05-31T08:38:35.254Z,999.56
2018-05-31T08:39:35.254Z,999.57
2018-05-31T08:40:35.254Z,999.59
2018-05-31T08:41:35.258Z,999.58
2018-05-31T08:42:35.255Z,999.57
2018-05-31T08:44:35.255Z,999.57
2018-05-31T08:45:35.256Z,999.58
2018-05-31T08:46:35.253Z,999.56
2018-05-31T08:47:35.255Z,999.51
2018-05-31T08:48:35.255Z,999.56
2018-05-31T08:49:35.255Z,999.51
2018-05-31T08:50:35.252Z,999.58
2018-05-31T08:51:35.254Z,999.57
2018-05-31T08:52:35.256Z,999.56
2018-05-31T08:53:35.255Z,999.60
2018-05-31T08:54:35.253Z,999.60
2018-05-31T08:55:35.252Z,999.61
2018-05-31T08:56:35.255Z,999.59
2018-05-31T08:57:35.253Z,999.61
2018-05-31T08:58:35.253Z,999.66
2018-05-31T08:59:35.257Z,999.67
2018-05-31T09:00:35.253Z,999.66
2018-05-31T09:01:35.254Z,999.71
2018-05-31T09:02:35.252Z,999.70
2018-05-31T09:03:35.259Z,999.73
2018-05-31T09:04:35.254Z,999.73
2018-05-31T09:05:35.257Z,999.73
2018-05-31T09:06:35.253Z,999.71
2018-05-31T09:07:35.254Z,999.72
2018-05-31T09:08:35.254Z,999.73
2018-05-31T09:09:35.259Z,999.71
2018-05-31T09:10:35.259Z,999.65
2018-05-31T09:11:35.254Z,999.63
2018-05-31T09:12:35.253Z,999.52
2018-05-31T09:13:35.257Z,999.51
2018-05-31T09:14:35.260Z,999.50
2018-05-31T09:15:35.255Z,999.51
2018-05-31T09:16:35.259Z,999.54
2018-05-31T09:17:35.252Z,999.60
2018-05-31T09:18:35.251Z,999.59
2018-05-31T09:19:35.251Z,999.62
2018-05-31T09:20:35.460Z,999.66
2018-05-31T09:21:35.251Z,999.64
2018-05-31T09:22:35.250Z,999.63
2018-05-31T09:23:35.250Z,999.68
2018-05-31T09:24:35.252Z,999.67
2018-05-31T09:25:35.251Z,999.67
2018-05-31T09:26:35.250Z,999.71
2018-05-31T09:27:35.253Z,999.71
2018-05-31T09:28:35.289Z,999.77
2018-05-31T09:29:35.257Z,999.81
2018-05-31T09:30:35.251Z,999.84
2018-05-31T09:31:35.257Z,999.83
2018-05-31T09:32:35.253Z,999.86
2018-05-31T09:33:35.258Z,999.91
2018-05-31T09:34:35.253Z,999.90
2018-05-31T09:35:35.254Z,999.94
2018-05-31T09:36:35.258Z,999.90
2018-05-31T09:37:35.258Z,999.93
2018-05-31T09:38:35.257Z,999.93
2018-05-31T09:39:35.255Z,999.91
2018-05-31T09:40:35.256Z,999.90
2018-05-31T09:41:35.259Z,999.93
2018-05-31T09:42:35.457Z,999.93
2018-05-31T09:43:35.258Z,999.97
2018-05-31T09:44:35.255Z,999.98
2018-05-31T09:45:35.259Z,999.98
2018-05-31T09:46:35.268Z,1000.01
2018-05-31T09:47:35.256Z,1000.03
2018-05-31T09:48:35.262Z,1000.07
2018-05-31T09:49:35.261Z,1000.06
2018-05-31T09:50:35.255Z,1000.06
2018-05-31T09:51:35.255Z,1000.06
2018-05-31T09:52:35.256Z,1000.07
2018-05-31T09:53:35.262Z,1000.11
2018-05-31T09:54:35.257Z,1000.09
2018-05-31T09:55:35.259Z,1000.10
2018-05-31T09:56:35.256Z,1000.10
2018-05-31T09:57:35.259Z,1000.12
2018-05-31T09:58:35.260Z,1000.13
2018-05-31T09:59:35.256Z,1000.15
2018-05-31T10:00:35.459Z,1000.14
2018-05-31T10:01:35.256Z,1000.17
2018-05-31T10:02:35.261Z,1000.20
2018-05-31T10:03:35.256Z,1000.20
2018-05-31T10:04:35.261Z,1000.22
2018-05-31T10:05:35.256Z,1000.22
2018-05-31T10:06:35.258Z,1000.21
2018-05-31T10:08:35.257Z,1000.21
2018-05-31T10:09:35.259Z,1000.22
2018-05-31T10:10:35.255Z,1000.18
2018-05-31T10:11:35.259Z,1000.23
2018-05-31T10:12:35.255Z,1000.23
2018-05-31T10:13:35.256Z,1000.24
2018-05-31T10:14:35.254Z,1000.22
2018-05-31T10:15:35.256Z,1000.18
2018-05-31T10:16:35.254Z,1000.20
2018-05-31T10:17:35.257Z,1000.16
2018-05-31T10:18:35.256Z,1000.13
2018-05-31T10:19:35.253Z,1000.13
2018-05-31T10:20:35.254Z,1000.10
2018-05-31T10:21:35.254Z,1000.08
2018-05-31T10:22:35.253Z,1000.02
2018-05-31T10:23:35.252Z,1000.02
2018-05-31T10:24:35.253Z,999.95
2018-05-31T10:25:35.252Z,999.94
2018-05-31T10:26:35.252Z,999.92
2018-05-31T10:27:35.252Z,999.89
2018-05-31T10:28:35.254Z,999.88
2018-05-31T10:29:35.252Z,999.88
2018-05-31T10:30:35.252Z,999.90
2018-05-31T10:31:35.254Z,999.90
2018-05-31T10:32:35.259Z,999.84
2018-05-31T10:33:35.258Z,999.86
2018-05-31T10:34:35.261Z,999.84
2018-05-31T10:35:35.254Z,999.81
2018-05-31T10:36:35.256Z,999.77
2018-05-31T10:37:35.261Z,999.79
2018-05-31T10:38:35.261Z,999.77
2018-05-31T10:39:35.259Z,999.77
2018-05-31T10:40:35.263Z,999.75
2018-05-31T10:41:35.262Z,999.72
2018-05-31T10:42:35.261Z,999.68
2018-05-31T10:43:35.262Z,999.63
2018-05-31T10:44:35.265Z,999.63
2018-05-31T10:45:35.266Z,999.62
2018-05-31T10:46:35.317Z,999.61
2018-05-31T10:47:35.270Z,999.56
2018-05-31T10:48:35.275Z,999.62
2018-05-31T10:49:35.473Z,999.58
2018-05-31T10:50:35.271Z,999.55
2018-05-31T10:51:35.275Z,999.56
2018-05-31T10:52:35.275Z,999.59
2018-05-31T10:53:35.276Z,999.58
2018-05-31T10:54:35.278Z,999.55
2018-05-31T10:55:35.281Z,999.58
2018-05-31T10:56:35.281Z,999.56
2018-05-31T10:57:35.284Z,999.61
2018-05-31T10:58:35.285Z,999.60
2018-05-31T10:59:35.291Z,999.55
2018-05-31T11:00:35.290Z,999.57
2018-05-31T11:01:35.293Z,999.66
2018-05-31T11:02:35.299Z,999.62
2018-05-31T11:03:35.299Z,999.66
2018-05-31T11:04:35.306Z,999.63
2018-05-31T11:05:35.311Z,999.60
2018-05-31T11:06:35.312Z,999.57
2018-05-31T11:07:35.317Z,999.55
2018-05-31T11:08:35.355Z,999.61
2018-05-31T11:09:35.329Z,999.64
2018-05-31T11:10:35.334Z,999.62
2018-05-31T11:11:35.346Z,999.58
2018-05-31T11:12:35.355Z,999.55
2018-05-31T11:13:35.362Z,999.58
2018-05-31T11:14:35.369Z,999.51
2018-05-31T11:15:35.380Z,999.59
2018-05-31T11:16:35.389Z,999.52
2018-05-31T11:17:35.604Z,999.64
2018-05-31T11:18:35.417Z,999.62
2018-05-31T11:19:35.420Z,999.56
2018-05-31T11:20:35.432Z,999.51
2018-05-31T11:21:35.487Z,999.50
2018-05-31T11:22:35.455Z,999.48
2018-05-31T11:23:35.469Z,999.48
2018-05-31T11:24:35.487Z,999.51
2018-05-31T11:25:35.495Z,999.55
2018-05-31T11:26:35.513Z,999.53
2018-05-31T11:27:35.527Z,999.52
2018-05-31T11:28:35.535Z,999.54
2018-05-31T11:29:35.555Z,999.54
2018-05-31T11:30:35.563Z,999.54
2018-05-31T11:31:35.581Z,999.59
2018-05-31T11:32:35.593Z,999.54
2018-05-31T11:33:35.613Z,999.56
2018-05-31T11:34:35.623Z,999.54
2018-05-31T11:35:35.639Z,999.61
2018-05-31T11:36:35.857Z,999.54
2018-05-31T11:37:35.671Z,999.52
2018-05-31T11:38:35.686Z,999.48
2018-05-31T11:39:35.706Z,999.54
2018-05-31T11:40:35.716Z,999.53
2018-05-31T11:41:35.735Z,999.52
2018-05-31T11:42:35.747Z,999.52
2018-05-31T11:43:35.759Z,999.52
2018-05-31T11:44:35.774Z,999.53
2018-05-31T11:45:35.792Z,999.50
2018-05-31T11:46:35.807Z,999.54
2018-05-31T11:47:35.822Z,999.54
2018-05-31T11:48:35.838Z,999.55
2018-05-31T11:49:35.858Z,999.58
2018-05-31T11:50:35.872Z,999.48
2018-05-31T11:51:35.885Z,999.51
2018-05-31T11:52:35.903Z,999.50
2018-05-31T11:53:35.922Z,999.55
2018-05-31T11:54:35.935Z,999.55
2018-05-31T11:55:35.950Z,999.54
2018-05-31T11:56:35.961Z,999.49
2018-05-31T11:57:35.976Z,999.48
2018-05-31T11:58:35.991Z,999.47
2018-05-31T11:59:36.012Z,999.46
2018-05-31T12:00:36.091Z,999.38
2018-05-31T12:01:36.069Z,999.40
2018-05-31T12:02:36.044Z,999.41
2018-05-31T12:03:36.057Z,999.45
2018-05-31T12:04:36.070Z,999.46
2018-05-31T12:05:36.085Z,999.38
2018-05-31T12:06:36.095Z,999.44
2018-05-31T12:07:36.107Z,999.42
2018-05-31T12:08:36.123Z,999.32
2018-05-31T12:09:36.135Z,999.33
2018-05-31T12:10:36.147Z,999.38
2018-05-31T12:11:36.160Z,999.37
2018-05-31T12:12:36.174Z,999.45
2018-05-31T12:13:36.187Z,999.43
2018-05-31T12:14:36.199Z,999.47
2018-05-31T12:15:36.217Z,999.43
2018-05-31T12:16:36.234Z,999.45
2018-05-31T12:17:36.289Z,999.42
2018-05-31T12:18:36.262Z,999.46
2018-05-31T12:19:36.274Z,999.45
2018-05-31T12:20:36.290Z,999.47
2018-05-31T12:21:36.706Z,999.48
2018-05-31T12:22:36.317Z,999.49
2018-05-31T12:23:36.334Z,999.48
2018-05-31T12:24:36.349Z,999.47
2018-05-31T12:25:36.420Z,999.46
2018-05-31T12:26:36.387Z,999.45
2018-05-31T12:27:36.402Z,999.46
2018-05-31T12:28:36.416Z,999.42
2018-05-31T12:29:36.429Z,999.39
2018-05-31T12:30:36.452Z,999.40
2018-05-31T12:31:36.462Z,999.39